ESMX

Växjö Kronoberg Airport

Växjö, Sweden
METAR ESMX 201350Z 23012KT 9999 SCT033 20/12 Q1009
Observed Flight Rules
Aug-20 @ 13:50 UTC (3 hours ago) Visual Flight Rules
Wind Visibility Clouds
230° at 12 knots 10,000+ meters
  • Scattered at 3,300' AGL
Temperatures Readings
Current 20°C / 68°F
Dewpoint 12°C / 54°F
Humidity 60%
Altimeter 29.79" Hg
Pressure 1009 hPa
Elevation 186
METAR ESMX 201350Z 23012KT 9999 SCT033 20/12 Q1009
Observed Flight Rules
Aug-20 @ 13:50 UTC
(3 hours ago)
VFR
Wind Visibility
230° at 12 knots 10,000+ meters
Clouds
  • Scattered at 3,300' AGL
Temperature Dewpoint
20°C / 68°F 12°C / 54°F
Humidity Altimeter Pressure
60% 29.79" Hg 1009 hPa